KFSM Airport (Fort Smith Rgnl) Information

FAA: FSM - ICAO: KFSM

KFSM Airport Location

State Arkansas
County Sebastian
City Fort Smith
KFSM Airport is 3 miles southeast of Fort Smith, AR.
Latitude 35-20-11.7000N
Longitude 094-22-02.8000W
Elevation 469ft

KFSM Airport METARs

METAR KFSM 301653Z 04006KT 10SM R25/5500VP6000FT CLR 15/06 A3010 RMK AO2 SLP193 T01500061
Altimeter 30.10"
Temperature 15.0°C (59.0°F)
Wind 40° at 6KT
Clouds Skies are clear.
Visibility 10.0mi
Time observed: 2021-11-30T16:53:00Z

KFSM Airport Details

Status Operational
Activation July 1941
Ownership Public
Usage Public
Chart MEMPHIS
ATC on-site Yes
Beacon schedule sunset-sunrise
Beacon color clear green

KFSM Airport Contacts

Owner FORT SMITH ARPT COMMISSION
Owner address 6700 MCKENNON BLVD SUITE 200, FORT SMITH, AR 72903
Owner phone 479-452-7000
Manager JOHN ROBERTSON
Manager address P.O. BOX 667, FORREST CITY, AR 72335
Manager phone 901-240-8262

KFSM Airport (Fort Smith Rgnl) Radio Frequencies

KFSM (Airport) Radio Frequencies

UNICOM 122.95
Common traffic advisory frequency (CTAF) 118.3